Time;durP1;ratioP1;P1;durP2;ratioP2;P2;SDS_P1;SDS_P2;PMS_P1;PMS_P2;Temp;Humidity;BMP_temperature;BMP_pressure;BME280_temperature;BME280_humidity;BME280_pressure;Samples;Min_cycle;Max_cycle;Signal;HPM_P1;HPM_P2
2022/09/06 00:00:15;;;;;;;;;;;;;;;23.41;65.75;101534.38;7401068;19;1900;-38
2022/09/06 00:02:44;;;;;;;;;;;;;;;23.42;65.62;101543.34;7400645;19;1742;-38
2022/09/06 00:05:13;;;;;;;;;;;;;;;23.42;65.53;101544.19;7402888;19;1079;-38
2022/09/06 00:07:44;;;;;;;;;;;;;;;23.44;65.77;101541.34;7400427;19;1890;-38
2022/09/06 00:10:12;;;;;;;;;;;;;;;23.44;65.55;101541.34;7401028;19;1793;-38
2022/09/06 00:12:41;;;;;;;;;;;;;;;23.45;65.67;101547.59;7400543;19;1707;-38
2022/09/06 00:15:09;;;;;;;;;;;;;;;23.46;65.79;101539.34;7400018;19;1604;-38
2022/09/06 00:17:38;;;;;;;;;;;;;;;23.43;65.71;101535.06;7398814;19;1833;-38
2022/09/06 00:20:07;;;;;;;;;;;;;;;23.45;65.66;101536.78;7401904;19;1024;-37
2022/09/06 00:22:36;;;;;;;;;;;;;;;23.42;65.77;101527.97;7399776;19;1813;-38
2022/09/06 00:25:07;;;;;;;;;;;;;;;23.43;65.78;101535.06;7401438;19;1668;-38
2022/09/06 00:27:36;;;;;;;;;;;;;;;23.44;65.51;101522.44;7401074;19;1693;-38
2022/09/06 00:30:06;;;;;;;;;;;;;;;23.42;65.62;101540.63;7401308;19;970;-37
2022/09/06 00:32:34;;;;;;;;;;;;;;;23.40;65.88;101529.97;7401662;19;1048;-38
2022/09/06 00:35:02;;;;;;;;;;;;;;;23.43;65.76;101528.81;7401261;19;2390;-38
2022/09/06 00:37:31;;;;;;;;;;;;;;;23.43;65.82;101537.78;7399234;19;1849;-38
2022/09/06 00:39:59;;;;;;;;;;;;;;;23.42;65.59;101527.97;7401074;19;1651;-38
2022/09/06 00:42:30;;;;;;;;;;;;;;;23.41;65.85;101520.88;7404347;19;1665;-38
2022/09/06 00:44:58;;;;;;;;;;;;;;;23.43;65.69;101523.44;7406513;19;1631;-38
2022/09/06 00:47:27;;;;;;;;;;;;;;;23.42;65.51;101538.78;7408307;19;2040;-39
2022/09/06 00:49:57;;;;;;;;;;;;;;;23.40;65.89;101535.38;7408900;19;971;-38
2022/09/06 00:52:27;;;;;;;;;;;;;;;23.40;65.58;101529.97;7406131;19;1809;-38
2022/09/06 00:54:55;;;;;;;;;;;;;;;23.40;65.87;101529.13;7407444;19;1678;-38
2022/09/06 00:57:25;;;;;;;;;;;;;;;23.40;65.65;101526.44;7406263;19;1877;-38
2022/09/06 00:59:57;;;;;;;;;;;;;;;23.41;65.85;101522.72;7405985;19;1923;-38
2022/09/06 01:02:25;;;;;;;;;;;;;;;23.38;65.69;101521.19;7405715;19;1730;-38
2022/09/06 01:04:54;;;;;;;;;;;;;;;23.37;65.66;101527.56;7408041;19;1976;-38
2022/09/06 01:07:27;;;;;;;;;;;;;;;23.38;65.67;101534.66;7405499;19;1832;-38
2022/09/06 01:10:04;;;;;;;;;;;;;;;23.40;65.66;101538.06;7406067;19;1694;-38
2022/09/06 01:12:39;;;;;;;;;;;;;;;23.40;65.70;101521.88;7406758;19;1675;-38
2022/09/06 01:15:16;;;;;;;;;;;;;;;23.43;65.49;101531.53;7405485;19;1668;-38
2022/09/06 01:17:51;;;;;;;;;;;;;;;23.39;65.83;101520.16;7405000;19;1847;-39
2022/09/06 01:20:28;;;;;;;;;;;;;;;23.41;65.43;101526.28;7407773;19;935;-38
2022/09/06 01:23:06;;;;;;;;;;;;;;;23.41;65.64;101541.63;7404105;19;1775;-38
2022/09/06 01:25:39;;;;;;;;;;;;;;;23.42;65.56;101527.13;7407016;19;1046;-38
2022/09/06 01:28:27;;;;;;;;;;;;;;;23.43;65.76;101529.66;7406542;19;1962;-38
2022/09/06 01:30:59;;;;;;;;;;;;;;;23.38;65.55;101523.88;7405399;19;1834;-38
2022/09/06 01:33:34;;;;;;;;;;;;;;;23.40;65.71;101535.38;7405893;19;1770;-38
2022/09/06 01:36:05;;;;;;;;;;;;;;;23.38;65.83;101531.97;7405683;19;1723;-38
2022/09/06 01:38:34;;;;;;;;;;;;;;;23.38;65.90;101523.03;7404123;19;1983;-38
2022/09/06 01:41:02;;;;;;;;;;;;;;;23.38;65.74;101523.88;7404966;19;1817;-38
2022/09/06 01:43:35;;;;;;;;;;;;;;;23.39;65.83;101528.25;7407382;19;1125;-38
2022/09/06 01:46:07;;;;;;;;;;;;;;;23.37;65.92;101514.06;7405534;19;1762;-38
2022/09/06 01:48:41;;;;;;;;;;;;;;;23.40;65.79;101512.94;7405538;19;1916;-38
2022/09/06 01:51:16;;;;;;;;;;;;;;;23.38;65.76;101521.19;7406343;19;1692;-38
2022/09/06 01:53:56;;;;;;;;;;;;;;;23.36;65.84;101506.97;7405889;19;1922;-38
2022/09/06 01:56:30;;;;;;;;;;;;;;;23.34;65.76;101503.56;7404991;19;1680;-38
2022/09/06 01:59:11;;;;;;;;;;;;;;;23.36;65.67;101517.78;7403949;19;1889;-38
2022/09/06 02:01:43;;;;;;;;;;;;;;;23.39;65.60;101511.22;7399554;19;3238;-60
2022/09/06 02:04:15;;;;;;;;;;;;;;;23.35;65.61;101505.25;7408404;19;1776;-59
2022/09/06 02:06:45;;;;;;;;;;;;;;;23.37;65.74;101491.63;7408892;19;1647;-59
2022/09/06 02:09:16;;;;;;;;;;;;;;;23.39;65.75;101497.72;7408791;19;1531;-59
2022/09/06 02:11:48;;;;;;;;;;;;;;;23.36;65.69;101496.19;7408399;19;1523;-60
2022/09/06 02:14:22;;;;;;;;;;;;;;;23.38;65.87;101491.50;7407912;19;1531;-60
2022/09/06 02:16:52;;;;;;;;;;;;;;;23.41;65.77;101496.56;7407894;19;1579;-60
2022/09/06 02:19:23;;;;;;;;;;;;;;;23.35;65.57;101496.31;7405443;19;1883;-60
2022/09/06 02:21:53;;;;;;;;;;;;;;;23.36;65.78;101511.53;7408390;19;1004;-60
2022/09/06 02:24:24;;;;;;;;;;;;;;;23.35;65.56;101505.25;7405398;19;1811;-60
2022/09/06 02:26:53;;;;;;;;;;;;;;;23.35;65.65;101502.56;7408263;19;1489;-60
2022/09/06 02:29:24;;;;;;;;;;;;;;;23.38;65.68;101498.75;7407203;19;1492;-60
2022/09/06 02:31:55;;;;;;;;;;;;;;;23.37;65.90;101508.66;7408737;19;1500;-60
2022/09/06 02:34:23;;;;;;;;;;;;;;;23.37;65.81;101503.28;7407864;19;1555;-60
2022/09/06 02:36:52;;;;;;;;;;;;;;;23.34;65.83;101508.97;7408973;19;1086;-60
2022/09/06 02:39:20;;;;;;;;;;;;;;;23.32;65.78;101518.22;7404661;19;1859;-60
2022/09/06 02:41:49;;;;;;;;;;;;;;;23.34;65.93;101498.19;7408076;19;1547;-60
2022/09/06 02:44:17;;;;;;;;;;;;;;;23.38;65.69;101504.97;7406766;19;1634;-60
2022/09/06 02:46:48;;;;;;;;;;;;;;;23.34;65.73;101502.72;7407859;19;1617;-60
2022/09/06 02:49:17;;;;;;;;;;;;;;;23.35;65.77;101510.66;7408874;19;1000;-60
2022/09/06 02:51:45;;;;;;;;;;;;;;;23.32;65.87;101494.78;7408671;19;934;-60
2022/09/06 02:54:14;;;;;;;;;;;;;;;23.37;65.76;101527.56;7406262;19;1702;-60
2022/09/06 02:56:42;;;;;;;;;;;;;;;23.32;65.86;101504.72;7406953;19;1622;-60
2022/09/06 02:59:10;;;;;;;;;;;;;;;23.35;65.69;101513.34;7406537;19;1851;-60
2022/09/06 03:01:38;;;;;;;;;;;;;;;23.33;65.71;101512.66;7406248;19;1481;-60
2022/09/06 03:04:10;;;;;;;;;;;;;;;23.36;65.78;101517.78;7406018;19;1690;-60
2022/09/06 03:06:38;;;;;;;;;;;;;;;23.35;65.73;101502.56;7407312;19;1623;-60
2022/09/06 03:09:09;;;;;;;;;;;;;;;23.32;65.60;101515.53;7405529;19;1555;-60
2022/09/06 03:11:37;;;;;;;;;;;;;;;23.36;65.69;101506.97;7403369;19;1523;-60
2022/09/06 03:14:06;;;;;;;;;;;;;;;23.36;65.88;101501.59;7405858;19;1652;-60
2022/09/06 03:16:35;;;;;;;;;;;;;;;23.37;65.92;101508.66;7407509;19;968;-60
2022/09/06 03:19:04;;;;;;;;;;;;;;;23.34;65.87;101505.44;7403412;19;1838;-60
2022/09/06 03:21:35;;;;;;;;;;;;;;;23.33;65.69;101501.84;7407751;19;1000;-60
2022/09/06 03:24:03;;;;;;;;;;;;;;;23.31;65.76;101487.66;7405529;19;1764;-60
2022/09/06 03:26:32;;;;;;;;;;;;;;;23.34;65.80;101502.72;7405373;19;1634;-60
2022/09/06 03:29:00;;;;;;;;;;;;;;;23.32;65.77;101500.19;7405936;19;1629;-60
2022/09/06 03:31:28;;;;;;;;;;;;;;;23.32;65.68;101497.47;7405462;19;1536;-60
2022/09/06 03:33:56;;;;;;;;;;;;;;;23.29;65.85;101495.06;7406646;19;1618;-60
2022/09/06 03:36:25;;;;;;;;;;;;;;;23.31;65.95;101501.16;7406977;19;955;-60
2022/09/06 03:38:57;;;;;;;;;;;;;;;23.32;65.77;101502.88;7403420;19;1864;-60
2022/09/06 03:41:25;;;;;;;;;;;;;;;23.29;65.87;101495.06;7404926;19;1873;-60
2022/09/06 03:43:53;;;;;;;;;;;;;;;23.35;65.68;101509.81;7405258;19;1086;-59
2022/09/06 03:46:22;;;;;;;;;;;;;;;23.33;65.65;101501.84;7404717;19;1784;-60
2022/09/06 03:48:50;;;;;;;;;;;;;;;23.31;65.92;101508.41;7405716;19;1535;-62
2022/09/06 03:51:19;;;;;;;;;;;;;;;23.31;65.74;101503.84;7404455;19;1559;-67
2022/09/06 03:53:48;;;;;;;;;;;;;;;23.31;65.82;101520.03;7404900;19;1547;-68
2022/09/06 03:56:19;;;;;;;;;;;;;;;23.35;65.79;101510.66;7404420;19;1540;-67
2022/09/06 03:58:47;;;;;;;;;;;;;;;23.35;65.83;101516.06;7403979;19;1853;-67
2022/09/06 04:01:16;;;;;;;;;;;;;;;23.30;65.69;101510.25;7404923;19;1381;-67
2022/09/06 04:03:44;;;;;;;;;;;;;;;23.28;65.68;101504.16;7402435;19;1725;-67
2022/09/06 04:06:12;;;;;;;;;;;;;;;23.31;65.67;101509.25;7405944;19;1012;-67
2022/09/06 04:08:41;;;;;;;;;;;;;;;23.34;65.89;101518.94;7402858;19;1737;-68
2022/09/06 04:11:10;;;;;;;;;;;;;;;23.35;65.99;101532.25;7403475;19;1555;-67
2022/09/06 04:13:41;;;;;;;;;;;;;;;23.33;65.88;101519.91;7405261;19;1528;-68
2022/09/06 04:16:09;;;;;;;;;;;;;;;23.33;65.77;101539.66;7405015;19;1634;-68
2022/09/06 04:18:38;;;;;;;;;;;;;;;23.33;65.98;101533.41;7411632;19;1847;-68
2022/09/06 04:21:06;;;;;;;;;;;;;;;23.32;65.89;101529.88;7413811;19;996;-67
2022/09/06 04:23:35;;;;;;;;;;;;;;;23.31;65.92;101530.84;7410677;19;1670;-67
2022/09/06 04:26:03;;;;;;;;;;;;;;;23.30;66.00;101528.28;7411027;19;1598;-67
2022/09/06 04:28:32;;;;;;;;;;;;;;;23.29;65.75;101538.22;7412680;19;965;-68
2022/09/06 04:31:03;;;;;;;;;;;;;;;23.31;66.00;101541.63;7410676;19;1788;-67
2022/09/06 04:33:32;;;;;;;;;;;;;;;23.29;65.81;101538.22;7411704;19;1626;-67
2022/09/06 04:36:02;;;;;;;;;;;;;;;23.30;65.87;101534.56;7411063;19;1555;-67
2022/09/06 04:38:32;;;;;;;;;;;;;;;23.31;65.79;101535.41;7409749;19;1859;-67
2022/09/06 04:41:00;;;;;;;;;;;;;;;23.33;65.97;101533.41;7412366;19;1588;-67
2022/09/06 04:43:28;;;;;;;;;;;;;;;23.30;66.00;101545.34;7412350;19;1188;-67
2022/09/06 04:45:57;;;;;;;;;;;;;;;23.31;65.99;101532.69;7410241;19;1622;-67
2022/09/06 04:48:28;;;;;;;;;;;;;;;23.30;65.66;101545.34;7411068;19;1631;-67
2022/09/06 04:50:56;;;;;;;;;;;;;;;23.32;65.75;101540.66;7410698;19;1642;-67
2022/09/06 04:53:24;;;;;;;;;;;;;;;23.30;65.85;101537.25;7411160;19;1654;-67
2022/09/06 04:55:53;;;;;;;;;;;;;;;23.30;65.60;101555.28;7410972;19;1575;-68
2022/09/06 04:58:21;;;;;;;;;;;;;;;23.31;65.66;101562.38;7412206;19;1875;-68
2022/09/06 05:00:50;;;;;;;;;;;;;;;23.31;65.81;101557.84;7410084;19;1694;-67
2022/09/06 05:03:18;;;;;;;;;;;;;;;23.31;65.87;101547.03;7408136;19;1797;-67
2022/09/06 05:05:49;;;;;;;;;;;;;;;23.28;65.81;101547.34;7411534;19;948;-60
2022/09/06 05:08:17;;;;;;;;;;;;;;;23.30;65.93;101541.78;7409077;19;1689;-60
2022/09/06 05:10:46;;;;;;;;;;;;;;;23.30;65.62;101545.34;7409322;19;1645;-60
2022/09/06 05:13:14;;;;;;;;;;;;;;;23.35;65.93;101550.31;7411238;19;1626;-60
2022/09/06 05:15:42;;;;;;;;;;;;;;;23.30;65.83;101549.88;7410332;19;1643;-60
2022/09/06 05:18:10;;;;;;;;;;;;;;;23.28;65.94;101552.75;7410128;19;1642;-60
2022/09/06 05:20:39;;;;;;;;;;;;;;;23.28;65.88;101552.75;7408881;19;1847;-60
2022/09/06 05:23:10;;;;;;;;;;;;;;;23.29;65.71;101559.81;7407808;19;1699;-60
2022/09/06 05:25:38;;;;;;;;;;;;;;;23.27;65.75;101561.81;7411283;19;1094;-60
2022/09/06 05:28:06;;;;;;;;;;;;;;;23.29;65.69;101578.72;7409544;19;1685;-60
2022/09/06 05:30:35;;;;;;;;;;;;;;;23.33;65.83;101565.78;7409828;19;1651;-59
2022/09/06 05:33:03;;;;;;;;;;;;;;;23.33;65.88;101565.78;7409438;19;1749;-60
2022/09/06 05:35:32;;;;;;;;;;;;;;;23.30;65.78;101566.94;7409914;19;1547;-60
2022/09/06 05:38:00;;;;;;;;;;;;;;;23.29;65.67;101565.22;7411054;19;979;-60
2022/09/06 05:40:31;;;;;;;;;;;;;;;23.30;65.98;101566.06;7408821;19;1896;-60
2022/09/06 05:42:59;;;;;;;;;;;;;;;23.31;65.68;101557.00;7410059;19;1682;-60
2022/09/06 05:45:27;;;;;;;;;;;;;;;23.30;65.67;101553.44;7407275;19;1710;-59
2022/09/06 05:47:56;;;;;;;;;;;;;;;23.30;65.83;101555.28;7409824;19;1554;-60
2022/09/06 05:50:24;;;;;;;;;;;;;;;23.30;65.90;101545.34;7409310;19;1568;-60
2022/09/06 05:52:54;;;;;;;;;;;;;;;23.28;65.88;101536.53;7409897;19;967;-59
2022/09/06 05:55:23;;;;;;;;;;;;;;;23.29;65.58;101548.19;7409993;19;1713;-60
2022/09/06 05:57:54;;;;;;;;;;;;;;;23.30;65.97;101545.34;7409309;19;1736;-60
2022/09/06 06:00:22;;;;;;;;;;;;;;;23.31;65.73;101546.19;7406755;19;1888;-60
2022/09/06 06:02:51;;;;;;;;;;;;;;;23.34;65.66;101541.38;7407163;19;1638;-60
2022/09/06 06:05:19;;;;;;;;;;;;;;;23.34;65.83;101541.38;7408214;19;1543;-60
2022/09/06 06:07:47;;;;;;;;;;;;;;;23.35;65.68;101543.03;7409281;19;936;-60
2022/09/06 06:10:16;;;;;;;;;;;;;;;23.35;65.50;101553.00;7409323;19;1749;-60
2022/09/06 06:12:44;;;;;;;;;;;;;;;23.38;65.53;101547.31;7408221;19;1705;-60
2022/09/06 06:15:15;;;;;;;;;;;;;;;23.32;65.81;101562.25;7409495;19;1707;-60
2022/09/06 06:17:44;;;;;;;;;;;;;;;23.33;65.69;101544.19;7406711;19;1630;-60
2022/09/06 06:20:12;;;;;;;;;;;;;;;23.37;65.66;101545.59;7407603;19;1861;-60
2022/09/06 06:22:40;;;;;;;;;;;;;;;23.31;65.58;101543.50;7408728;19;926;-60
2022/09/06 06:25:09;;;;;;;;;;;;;;;23.35;65.57;101540.34;7408194;19;1772;-60
2022/09/06 06:27:37;;;;;;;;;;;;;;;23.37;65.73;101546.44;7407513;19;1753;-60
2022/09/06 06:30:06;;;;;;;;;;;;;;;23.41;65.59;101557.81;7408435;19;1559;-60
2022/09/06 06:32:37;;;;;;;;;;;;;;;23.43;65.42;101561.22;7407245;19;1630;-60
2022/09/06 06:35:07;;;;;;;;;;;;;;;23.43;65.48;101551.25;7408904;19;1539;-60
2022/09/06 06:37:36;;;;;;;;;;;;;;;23.46;65.23;101560.06;7409318;19;952;-60
2022/09/06 06:40:05;;;;;;;;;;;;;;;23.46;65.22;101549.25;7404698;19;1860;-60
2022/09/06 06:42:33;;;;;;;;;;;;;;;23.51;65.44;101571.28;7405765;19;1551;-60
2022/09/06 06:45:01;;;;;;;;;;;;;;;23.52;65.30;101549.56;7402882;19;1728;-60
2022/09/06 06:47:30;;;;;;;;;;;;;;;23.56;65.01;101550.13;7404933;19;1677;-60
2022/09/06 06:50:01;;;;;;;;;;;;;;;23.56;64.92;101559.06;7405937;19;1650;-60
2022/09/06 06:52:29;;;;;;;;;;;;;;;23.58;64.98;101553.53;7407105;19;1710;-60
2022/09/06 06:54:57;;;;;;;;;;;;;;;23.60;64.92;101562.31;7404614;19;1516;-60
2022/09/06 06:57:25;;;;;;;;;;;;;;;23.62;64.84;101560.31;7404812;19;1619;-60
2022/09/06 06:59:54;;;;;;;;;;;;;;;23.62;64.80;101563.88;7405912;19;1847;-60
2022/09/06 07:02:22;;;;;;;;;;;;;;;23.63;65.01;101551.22;7406035;19;1373;-60
2022/09/06 07:04:50;;;;;;;;;;;;;;;23.65;64.98;101562.72;7406470;19;1740;-60
2022/09/06 07:07:21;;;;;;;;;;;;;;;23.68;64.77;101556.19;7406937;19;1638;-60
2022/09/06 07:09:49;;;;;;;;;;;;;;;23.68;64.89;101553.50;7406600;19;1555;-60
2022/09/06 07:12:17;;;;;;;;;;;;;;;23.69;64.86;101561.44;7405946;19;1587;-60
2022/09/06 07:14:46;;;;;;;;;;;;;;;23.66;64.65;101556.34;7405632;19;1555;-60
2022/09/06 07:17:14;;;;;;;;;;;;;;;23.71;64.74;101581.03;7405929;19;1058;-60
2022/09/06 07:19:42;;;;;;;;;;;;;;;23.71;64.74;101570.22;7405095;19;1866;-60
2022/09/06 07:22:10;;;;;;;;;;;;;;;23.72;64.66;101565.69;7406237;19;1051;-60
2022/09/06 07:24:41;;;;;;;;;;;;;;;23.68;65.03;101559.75;7406955;19;1709;-59
2022/09/06 07:27:09;;;;;;;;;;;;;;;23.74;64.98;101585.31;7405111;19;1789;-59
2022/09/06 07:29:38;;;;;;;;;;;;;;;23.70;64.84;101567.69;7405117;19;1563;-59
2022/09/06 07:32:06;;;;;;;;;;;;;;;23.78;64.74;101579.50;7404405;19;1646;-60
2022/09/06 07:34:36;;;;;;;;;;;;;;;23.73;64.98;101562.81;7406636;19;1611;-60
2022/09/06 07:37:05;;;;;;;;;;;;;;;23.77;64.61;101571.50;7406395;19;1413;-60
2022/09/06 07:39:36;;;;;;;;;;;;;;;23.73;64.95;101576.34;7402843;19;1852;-59
2022/09/06 07:42:08;;;;;;;;;;;;;;;23.77;65.01;101563.41;7405295;19;1575;-59
2022/09/06 07:44:36;;;;;;;;;;;;;;;23.73;64.56;101576.34;7404727;19;1567;-59
2022/09/06 07:47:05;;;;;;;;;;;;;;;23.76;64.93;101589.56;7407049;19;934;-59
2022/09/06 07:49:33;;;;;;;;;;;;;;;23.74;64.64;101580.75;7406360;19;1772;-60
2022/09/06 07:52:02;;;;;;;;;;;;;;;23.81;64.90;101581.03;7404825;19;1673;-60
2022/09/06 07:54:30;;;;;;;;;;;;;;;23.78;64.58;101587.59;7404455;19;1733;-60
2022/09/06 07:56:58;;;;;;;;;;;;;;;23.75;64.63;101568.94;7404945;19;1633;-60
2022/09/06 07:59:29;;;;;;;;;;;;;;;23.75;64.73;101576.19;7403887;19;1857;-60
2022/09/06 08:01:57;;;;;;;;;;;;;;;23.77;64.94;101568.78;7404459;19;1319;-60
2022/09/06 08:04:25;;;;;;;;;;;;;;;23.77;64.95;101572.38;7404374;19;1710;-60
2022/09/06 08:06:56;;;;;;;;;;;;;;;23.81;64.67;101581.91;7404916;19;1638;-60
2022/09/06 08:09:24;;;;;;;;;;;;;;;23.81;65.00;101570.22;7403862;19;1563;-60
2022/09/06 08:11:52;;;;;;;;;;;;;;;23.81;64.79;101581.03;7402250;19;1618;-60
2022/09/06 08:14:20;;;;;;;;;;;;;;;23.79;64.93;101556.03;7404489;19;997;-60
2022/09/06 08:16:51;;;;;;;;;;;;;;;23.79;64.72;101550.63;7406132;19;1012;-60
2022/09/06 08:19:20;;;;;;;;;;;;;;;23.78;64.65;101555.19;7404580;19;1690;-60
2022/09/06 08:21:48;;;;;;;;;;;;;;;23.81;64.71;101543.22;7403184;19;1619;-60
2022/09/06 08:24:16;;;;;;;;;;;;;;;23.80;64.59;101547.78;7404991;19;1658;-60
2022/09/06 08:26:45;;;;;;;;;;;;;;;23.81;64.79;101545.91;7403987;19;1527;-60
2022/09/06 08:29:14;;;;;;;;;;;;;;;23.82;64.69;101534.97;7403446;19;1520;-60
2022/09/06 08:31:43;;;;;;;;;;;;;;;23.87;64.92;101544.47;7403297;19;1055;-60
2022/09/06 08:34:14;;;;;;;;;;;;;;;23.85;64.72;101541.91;7401094;19;1650;-60
2022/09/06 08:36:44;;;;;;;;;;;;;;;23.80;64.75;101534.28;7403462;19;1610;-60
2022/09/06 08:39:12;;;;;;;;;;;;;;;23.82;64.56;101532.28;7402560;19;1634;-60
2022/09/06 08:41:47;;;;;;;;;;;;;;;23.84;64.68;101528.59;7402690;19;1859;-60
2022/09/06 08:44:17;;;;;;;;;;;;;;;23.88;64.78;101538.94;7404980;19;1043;-68
2022/09/06 08:46:49;;;;;;;;;;;;;;;23.83;64.70;101535.81;7404600;19;1712;-68
2022/09/06 08:49:20;;;;;;;;;;;;;;;23.84;64.93;101531.28;7402126;19;1690;-68
2022/09/06 08:51:56;;;;;;;;;;;;;;;23.82;64.96;101526.03;7399392;19;1737;-68
2022/09/06 08:54:27;;;;;;;;;;;;;;;23.83;64.96;101530.41;7402940;19;1575;-68
2022/09/06 08:57:03;;;;;;;;;;;;;;;23.82;64.94;101531.44;7403391;19;1622;-68
2022/09/06 08:59:33;;;;;;;;;;;;;;;23.83;64.87;101516.91;7401556;19;1532;-68
2022/09/06 09:02:06;;;;;;;;;;;;;;;23.85;64.83;101527.56;7399602;19;1579;-68
2022/09/06 09:04:40;;;;;;;;;;;;;;;23.81;64.64;101537.81;7409699;19;1780;-68
2022/09/06 09:07:14;;;;;;;;;;;;;;;23.83;64.88;101514.22;7408446;19;1543;-68
2022/09/06 09:09:42;;;;;;;;;;;;;;;23.81;64.66;101532.41;7407123;19;1666;-68
2022/09/06 09:12:13;;;;;;;;;;;;;;;23.85;64.88;101527.56;7409438;19;1589;-68
2022/09/06 09:14:42;;;;;;;;;;;;;;;23.86;64.94;101507.69;7410083;19;1701;-68
2022/09/06 09:17:14;;;;;;;;;;;;;;;23.84;64.97;101510.53;7410839;19;1610;-69
2022/09/06 09:19:45;;;;;;;;;;;;;;;23.86;64.99;101521.19;7410399;19;1857;-68
2022/09/06 09:22:14;;;;;;;;;;;;;;;23.86;64.60;101519.31;7404886;19;1749;-68
2022/09/06 09:24:42;;;;;;;;;;;;;;;23.86;64.83;101504.97;7405512;19;1555;-68
2022/09/06 09:27:12;;;;;;;;;;;;;;;23.86;64.74;101507.69;7407782;19;1706;-68
2022/09/06 09:29:58;;;;;;;;;;;;;;;23.88;64.73;101503.81;7409837;19;1641;-68
2022/09/06 09:32:33;;;;;;;;;;;;;;;23.87;64.69;101483.19;7409298;19;1559;-68
2022/09/06 09:35:16;;;;;;;;;;;;;;;23.91;64.70;101503.50;7404943;19;1750;-68
2022/09/06 09:37:47;;;;;;;;;;;;;;;23.91;64.67;101499.97;7405532;19;1713;-68
2022/09/06 09:40:16;;;;;;;;;;;;;;;23.95;64.71;101512.16;7407477;19;1854;-68
2022/09/06 09:42:45;;;;;;;;;;;;;;;23.92;64.72;101505.22;7408110;19;1626;-68
2022/09/06 09:45:26;;;;;;;;;;;;;;;23.91;64.58;101497.25;7407227;19;1548;-68
2022/09/06 09:47:54;;;;;;;;;;;;;;;23.98;64.69;101511.88;7406629;19;1772;-68
2022/09/06 09:50:27;;;;;;;;;;;;;;;23.93;64.69;101489.84;7406692;19;1580;-68
2022/09/06 09:52:58;;;;;;;;;;;;;;;23.95;64.68;101490.56;7407978;19;1566;-68
2022/09/06 09:55:27;;;;;;;;;;;;;;;23.96;64.60;101487.72;7408627;19;1560;-69
2022/09/06 09:57:56;;;;;;;;;;;;;;;23.98;64.61;101480.31;7406752;19;1658;-68
2022/09/06 10:00:35;;;;;;;;;;;;;;;23.95;64.51;101471.66;7407741;19;1864;-69
2022/09/06 10:03:12;;;;;;;;;;;;;;;23.94;64.57;101470.81;7402786;19;1771;-68
2022/09/06 10:05:41;;;;;;;;;;;;;;;23.94;64.67;101473.50;7407716;19;1630;-60
2022/09/06 10:08:14;;;;;;;;;;;;;;;23.96;64.70;101479.59;7405537;19;1686;-61
2022/09/06 10:10:44;;;;;;;;;;;;;;;23.97;64.95;101483.16;7407116;19;1577;-60
2022/09/06 10:13:19;;;;;;;;;;;;;;;23.93;64.69;101468.25;7407731;19;1630;-60
2022/09/06 10:15:49;;;;;;;;;;;;;;;23.97;64.58;101467.81;7401626;19;1575;-69
2022/09/06 10:18:19;;;;;;;;;;;;;;;23.92;64.56;101458.47;7406658;19;1577;-68
2022/09/06 10:20:51;;;;;;;;;;;;;;;23.95;64.61;101467.09;7404980;19;1871;-68
2022/09/06 10:23:30;;;;;;;;;;;;;;;23.96;64.75;101460.69;7405804;19;1548;-68
2022/09/06 10:26:06;;;;;;;;;;;;;;;23.96;64.80;101460.69;7404892;19;1720;-68
2022/09/06 10:28:40;;;;;;;;;;;;;;;23.99;64.70;101459.53;7407453;19;1629;-68
2022/09/06 10:31:32;;;;;;;;;;;;;;;23.96;64.68;101449.03;7406827;19;1575;-68
2022/09/06 10:34:10;;;;;;;;;;;;;;;23.97;64.69;101448.91;7406983;19;1626;-68
2022/09/06 10:36:39;;;;;;;;;;;;;;;23.95;64.63;101445.47;7406286;19;1583;-69
2022/09/06 10:39:19;;;;;;;;;;;;;;;24.01;64.56;101441.31;7406380;19;1701;-68
2022/09/06 10:41:53;;;;;;;;;;;;;;;23.97;64.90;101435.41;7404833;19;1844;-69
2022/09/06 10:44:31;;;;;;;;;;;;;;;23.96;64.64;101451.75;7405636;19;1528;-68
2022/09/06 10:47:03;;;;;;;;;;;;;;;23.99;64.67;101432.50;7405427;19;1689;-68
2022/09/06 10:49:34;;;;;;;;;;;;;;;24.02;64.54;101451.13;7404876;19;1784;-68
2022/09/06 10:52:05;;;;;;;;;;;;;;;24.03;64.72;101439.31;7405061;19;1623;-68
2022/09/06 10:54:39;;;;;;;;;;;;;;;23.99;64.66;101427.13;7404950;19;1786;-68
2022/09/06 10:57:12;;;;;;;;;;;;;;;24.03;64.77;101439.31;7404250;19;1634;-69
2022/09/06 10:59:47;;;;;;;;;;;;;;;23.98;64.70;101428.97;7405171;19;1693;-68
2022/09/06 11:02:20;;;;;;;;;;;;;;;23.99;64.48;101437.91;7403450;19;1830;-67
2022/09/06 11:04:50;;;;;;;;;;;;;;;24.02;64.71;101438.47;7404445;19;1639;-68
2022/09/06 11:07:22;;;;;;;;;;;;;;;24.01;64.93;101436.78;7401991;19;1705;-68
2022/09/06 11:09:55;;;;;;;;;;;;;;;24.02;64.65;101430.38;7400905;19;1646;-69
2022/09/06 11:12:29;;;;;;;;;;;;;;;23.99;64.73;101428.00;7403451;19;1559;-69
2022/09/06 11:14:58;;;;;;;;;;;;;;;23.99;64.62;101437.91;7402549;19;1768;-68
2022/09/06 11:17:32;;;;;;;;;;;;;;;24.00;64.89;101424.25;7405322;19;1638;-68
2022/09/06 11:20:05;;;;;;;;;;;;;;;23.98;64.61;101428.97;7403022;19;1630;-60
2022/09/06 11:22:43;;;;;;;;;;;;;;;24.01;64.62;101441.31;7402380;19;1847;-60
2022/09/06 11:25:34;;;;;;;;;;;;;;;24.00;64.87;101429.66;7402568;19;1658;-68
2022/09/06 11:28:05;;;;;;;;;;;;;;;24.02;64.55;101421.41;7404520;19;1639;-68
2022/09/06 11:30:33;;;;;;;;;;;;;;;24.01;64.63;101425.97;7406315;19;1787;-68
2022/09/06 11:33:10;;;;;;;;;;;;;;;24.01;64.53;101419.69;7405233;19;1698;-68
2022/09/06 11:35:39;;;;;;;;;;;;;;;24.07;64.87;101427.19;7407228;19;1568;-68
2022/09/06 11:38:17;;;;;;;;;;;;;;;24.05;64.68;101413.00;7406037;19;1551;-68
2022/09/06 11:40:49;;;;;;;;;;;;;;;24.02;64.66;101407.91;7406911;19;1855;-68
2022/09/06 11:43:19;;;;;;;;;;;;;;;24.00;64.69;101397.25;7404287;19;1670;-68
2022/09/06 11:45:49;;;;;;;;;;;;;;;24.02;64.52;101392.53;7405170;19;1626;-68
2022/09/06 11:48:38;;;;;;;;;;;;;;;24.02;64.83;101397.09;7406686;19;1547;-68
2022/09/06 11:51:12;;;;;;;;;;;;;;;24.01;64.70;101414.31;7404681;19;1004;-68
2022/09/06 11:53:56;;;;;;;;;;;;;;;24.02;64.55;101394.41;7404377;19;1798;-68
2022/09/06 11:56:32;;;;;;;;;;;;;;;24.04;64.60;101402.34;7403997;19;1622;-68
2022/09/06 11:59:03;;;;;;;;;;;;;;;24.00;64.66;101402.66;7405021;19;1570;-68
2022/09/06 12:01:36;;;;;;;;;;;;;;;24.03;64.65;101404.19;7405056;19;1856;-68
2022/09/06 12:04:06;;;;;;;;;;;;;;;24.01;64.76;101376.47;7405285;19;1784;-68
2022/09/06 12:06:36;;;;;;;;;;;;;;;23.97;64.91;101366.97;7405129;19;1753;-68
2022/09/06 12:09:24;;;;;;;;;;;;;;;24.00;64.77;101375.63;7402836;19;1730;-68
2022/09/06 12:11:58;;;;;;;;;;;;;;;24.07;64.61;101375.03;7403036;19;1622;-68
2022/09/06 12:14:34;;;;;;;;;;;;;;;23.99;64.76;101367.69;7403414;19;1626;-68
2022/09/06 12:17:26;;;;;;;;;;;;;;;23.99;64.90;101362.28;7405640;19;1630;-68
2022/09/06 12:19:56;;;;;;;;;;;;;;;23.99;64.76;101367.69;7403101;19;1539;-68
2022/09/06 12:22:40;;;;;;;;;;;;;;;24.04;64.57;101375.34;7404486;19;1856;-68
2022/09/06 12:25:16;;;;;;;;;;;;;;;23.99;64.76;101378.47;7405027;19;1784;-68
2022/09/06 12:27:55;;;;;;;;;;;;;;;24.01;64.70;101360.25;7404566;19;1682;-68
2022/09/06 12:30:34;;;;;;;;;;;;;;;23.98;64.69;101344.38;7401636;19;1666;-68
2022/09/06 12:33:04;;;;;;;;;;;;;;;23.97;64.96;101350.78;7400307;19;1627;-68
2022/09/06 12:35:33;;;;;;;;;;;;;;;23.99;64.67;101346.94;7401895;19;1540;-68
2022/09/06 12:38:02;;;;;;;;;;;;;;;23.99;64.87;101364.97;7404152;19;1610;-69
2022/09/06 12:40:32;;;;;;;;;;;;;;;24.00;64.95;101347.78;7405308;19;1599;-60
2022/09/06 12:43:04;;;;;;;;;;;;;;;24.04;64.80;101349.16;7407302;19;1850;-61
2022/09/06 12:45:32;;;;;;;;;;;;;;;24.02;64.94;101334.97;7408550;19;1647;-61
2022/09/06 12:48:11;;;;;;;;;;;;;;;24.04;64.54;101343.75;7409281;19;1696;-61
2022/09/06 12:50:40;;;;;;;;;;;;;;;24.04;64.75;101337.53;7408251;19;1717;-61
2022/09/06 12:53:21;;;;;;;;;;;;;;;23.99;64.94;101333.44;7409097;19;1607;-60
2022/09/06 12:55:50;;;;;;;;;;;;;;;24.03;64.57;101347.44;7408384;19;1606;-60
2022/09/06 12:58:29;;;;;;;;;;;;;;;24.02;64.95;101349.31;7407324;19;1748;-61
2022/09/06 13:01:02;;;;;;;;;;;;;;;24.03;64.99;101347.44;7406496;19;1846;-61
2022/09/06 13:03:32;;;;;;;;;;;;;;;23.99;64.98;101335.25;7410223;19;1614;-60
2022/09/06 13:06:04;;;;;;;;;;;;;;;24.00;64.81;101332.41;7405677;19;1725;-60